createdAt,value
2018-08-07T00:00:22.970Z,82.78
2018-08-07T00:02:52.890Z,83.26
2018-08-07T00:05:22.332Z,82.64
2018-08-07T00:07:53.058Z,84.85
2018-08-07T00:10:23.645Z,84.51
2018-08-07T00:12:53.450Z,84.81
2018-08-07T00:15:24.308Z,85.68
2018-08-07T00:17:53.995Z,85.04
2018-08-07T00:20:23.665Z,84.72
2018-08-07T00:22:52.907Z,85.34
2018-08-07T00:25:22.258Z,87.15
2018-08-07T00:27:51.545Z,87.64
2018-08-07T00:30:21.974Z,87.46
2018-08-07T00:32:51.382Z,85.34
2018-08-07T00:35:21.142Z,85.99
2018-08-07T00:37:50.476Z,86.41
2018-08-07T00:40:20.187Z,86.70
2018-08-07T00:42:49.659Z,85.46
2018-08-07T00:45:21.110Z,86.36
2018-08-07T00:47:51.692Z,86.32
2018-08-07T00:50:22.265Z,86.18
2018-08-07T00:52:52.453Z,85.42
2018-08-07T00:55:22.375Z,85.34
2018-08-07T00:57:52.093Z,87.54
2018-08-07T01:00:21.653Z,88.63
2018-08-07T01:02:51.003Z,87.10
2018-08-07T01:05:20.328Z,86.65
2018-08-07T01:07:49.825Z,87.64
2018-08-07T01:10:19.492Z,87.90
2018-08-07T01:12:49.048Z,88.15
2018-08-07T01:15:20.642Z,86.95
2018-08-07T01:17:50.155Z,87.60
2018-08-07T01:20:22.173Z,86.65
2018-08-07T01:22:51.560Z,87.28
2018-08-07T01:25:23.947Z,87.53
2018-08-07T01:27:53.231Z,87.67
2018-08-07T01:30:24.118Z,87.77
2018-08-07T01:32:54.144Z,87.72
2018-08-07T01:35:24.090Z,87.85
2018-08-07T01:37:53.439Z,86.83
2018-08-07T01:40:23.127Z,87.76
2018-08-07T01:42:52.506Z,87.48
2018-08-07T01:45:21.809Z,88.70
2018-08-07T01:47:51.240Z,87.88
2018-08-07T01:50:20.564Z,88.65
2018-08-07T01:52:50.051Z,88.10
2018-08-07T01:55:25.660Z,88.02
2018-08-07T01:57:55.061Z,88.37
2018-08-07T02:00:24.489Z,89.59
2018-08-07T02:02:53.773Z,89.77
2018-08-07T02:05:23.990Z,89.61
2018-08-07T02:07:53.544Z,89.27
2018-08-07T02:10:23.234Z,88.94
2018-08-07T02:12:52.463Z,89.22
2018-08-07T02:15:22.608Z,88.53
2018-08-07T02:17:51.936Z,89.47
2018-08-07T02:20:21.439Z,89.88
2018-08-07T02:22:50.734Z,89.48
2018-08-07T02:25:20.552Z,90.51
2018-08-07T02:27:50.004Z,89.68
2018-08-07T02:30:19.665Z,89.79
2018-08-07T02:32:48.974Z,89.99
2018-08-07T02:35:18.624Z,89.30
2018-08-07T02:37:48.502Z,89.00
2018-08-07T02:40:18.213Z,89.95
2018-08-07T02:42:47.519Z,89.75
2018-08-07T02:45:19.350Z,90.87
2018-08-07T02:47:49.233Z,90.37
2018-08-07T02:50:21.116Z,90.72
2018-08-07T02:52:50.432Z,90.02
2018-08-07T02:55:21.263Z,91.05
2018-08-07T02:57:51.088Z,90.73
2018-08-07T03:00:22.100Z,90.10
2018-08-07T03:02:51.606Z,90.12
2018-08-07T03:05:21.676Z,90.19
2018-08-07T03:07:51.260Z,89.87
2018-08-07T03:10:20.612Z,91.97
2018-08-07T03:12:50.248Z,91.35
2018-08-07T03:15:20.417Z,91.09
2018-08-07T03:17:50.129Z,90.65
2018-08-07T03:20:19.400Z,90.83
2018-08-07T03:22:48.551Z,91.29
2018-08-07T03:25:17.740Z,91.27
2018-08-07T03:27:47.135Z,91.45
2018-08-07T03:30:17.633Z,91.39
2018-08-07T03:32:47.193Z,91.83
2018-08-07T03:35:16.334Z,91.60
2018-08-07T03:37:45.404Z,91.66
2018-08-07T03:40:16.783Z,91.70
2018-08-07T03:42:46.479Z,91.33
2018-08-07T03:45:16.620Z,91.49
2018-08-07T03:47:46.444Z,91.92
2018-08-07T03:50:15.498Z,91.82
2018-08-07T03:52:44.659Z,91.79
2018-08-07T03:55:18.754Z,92.86
2018-08-07T03:57:48.178Z,91.91
2018-08-07T04:00:20.272Z,91.94
2018-08-07T04:02:49.566Z,92.88
2018-08-07T04:05:18.786Z,91.96
2018-08-07T04:07:47.902Z,92.31
2018-08-07T04:10:18.505Z,91.69
2018-08-07T04:12:47.495Z,91.85
2018-08-07T04:15:17.967Z,92.67
2018-08-07T04:17:47.045Z,92.46
2018-08-07T04:20:18.488Z,92.55
2018-08-07T04:22:47.785Z,92.63
2018-08-07T04:25:16.854Z,92.71
2018-08-07T04:27:46.000Z,93.62
2018-08-07T04:30:17.016Z,93.48
2018-08-07T04:32:46.388Z,94.08
2018-08-07T04:35:16.363Z,93.07
2018-08-07T04:37:45.659Z,93.37
2018-08-07T04:40:14.940Z,94.30
2018-08-07T04:42:44.000Z,93.96
2018-08-07T04:45:14.607Z,93.09
2018-08-07T04:47:44.539Z,93.23
2018-08-07T04:50:13.566Z,93.81
2018-08-07T04:52:42.672Z,92.99
2018-08-07T04:55:12.392Z,93.58
2018-08-07T04:57:41.446Z,93.78
2018-08-07T05:00:13.985Z,93.69
2018-08-07T05:02:43.539Z,92.89
2018-08-07T05:05:12.585Z,91.86
2018-08-07T05:07:41.723Z,91.94
2018-08-07T05:10:13.284Z,92.79
2018-08-07T05:12:43.458Z,91.19
2018-08-07T05:15:13.080Z,90.29
2018-08-07T05:17:43.835Z,90.24
2018-08-07T05:20:13.227Z,89.11
2018-08-07T05:22:42.598Z,88.32
2018-08-07T05:25:12.474Z,87.71
2018-08-07T05:27:42.452Z,86.70
2018-08-07T05:30:13.293Z,85.47
2018-08-07T05:32:42.772Z,85.50
2018-08-07T05:35:13.632Z,85.61
2018-08-07T05:37:43.271Z,85.18
2018-08-07T05:40:12.895Z,84.12
2018-08-07T05:42:42.779Z,82.95
2018-08-07T05:45:13.838Z,82.61
2018-08-07T05:47:43.195Z,81.34
2018-08-07T05:50:15.120Z,81.14
2018-08-07T05:52:44.583Z,79.67
2018-08-07T05:55:14.814Z,80.87
2018-08-07T05:57:44.341Z,80.86
2018-08-07T06:00:16.507Z,80.40
2018-08-07T06:02:46.816Z,80.31
2018-08-07T06:05:16.275Z,80.22
2018-08-07T06:07:45.887Z,79.53
2018-08-07T06:10:15.361Z,78.83
2018-08-07T06:12:44.829Z,77.90
2018-08-07T06:15:15.919Z,77.49
2018-08-07T06:17:46.208Z,76.90
2018-08-07T06:20:15.627Z,76.27
2018-08-07T06:22:45.225Z,75.41
2018-08-07T06:25:14.678Z,77.07
2018-08-07T06:27:43.919Z,76.45
2018-08-07T06:30:16.004Z,76.93
2018-08-07T06:32:45.692Z,75.96
2018-08-07T06:35:16.069Z,75.94
2018-08-07T06:37:45.488Z,75.18
2018-08-07T06:40:15.450Z,75.74
2018-08-07T06:42:45.209Z,75.79
2018-08-07T06:45:15.999Z,75.38
2018-08-07T06:47:45.682Z,74.92
2018-08-07T06:50:17.591Z,73.82
2018-08-07T06:52:47.984Z,71.90
2018-08-07T06:55:17.526Z,71.69
2018-08-07T06:57:47.139Z,69.96
2018-08-07T07:00:25.343Z,71.31
2018-08-07T07:02:55.167Z,70.58
2018-08-07T07:05:24.813Z,69.83
2018-08-07T07:07:54.248Z,69.32
2018-08-07T07:10:23.795Z,68.84
2018-08-07T07:12:53.181Z,63.64
2018-08-07T07:15:22.928Z,65.10
2018-08-07T07:17:52.409Z,63.07
2018-08-07T07:20:21.711Z,63.14
2018-08-07T07:22:50.915Z,61.70
2018-08-07T07:25:20.300Z,61.42
2018-08-07T07:27:49.712Z,62.79
2018-08-07T07:30:22.011Z,62.85
2018-08-07T07:32:52.623Z,66.37
2018-08-07T07:35:22.029Z,67.87
2018-08-07T07:37:53.004Z,67.39
2018-08-07T07:40:22.474Z,68.02
2018-08-07T07:42:52.458Z,67.15
2018-08-07T07:45:22.222Z,68.91
2018-08-07T07:47:51.544Z,67.38
2018-08-07T07:50:21.896Z,65.33
2018-08-07T07:52:52.017Z,64.34
2018-08-07T07:55:21.644Z,64.83
2018-08-07T07:57:51.089Z,62.57
2018-08-07T08:00:23.340Z,62.02
2018-08-07T08:02:52.859Z,61.91
2018-08-07T08:05:23.903Z,62.21
2018-08-07T08:07:53.881Z,61.48
2018-08-07T08:10:23.398Z,61.46
2018-08-07T08:12:52.809Z,60.75
2018-08-07T08:15:22.214Z,60.72
2018-08-07T08:17:51.748Z,58.97
2018-08-07T08:20:24.629Z,59.50
2018-08-07T08:22:54.934Z,61.24
2018-08-07T08:25:24.599Z,60.65
2018-08-07T08:27:53.928Z,58.34
2018-08-07T08:30:23.521Z,58.07
2018-08-07T08:32:52.834Z,59.88
2018-08-07T08:35:22.441Z,59.06
2018-08-07T08:37:51.717Z,58.22
2018-08-07T08:40:22.872Z,57.24
2018-08-07T08:42:52.304Z,56.82
2018-08-07T08:45:23.416Z,56.97
2018-08-07T08:47:54.981Z,55.89
2018-08-07T08:50:24.465Z,56.06
2018-08-07T08:52:53.722Z,56.07
2018-08-07T08:55:23.200Z,55.92
2018-08-07T08:57:52.582Z,54.20
2018-08-07T09:00:23.640Z,53.51
2018-08-07T09:02:53.122Z,53.28
2018-08-07T09:05:22.474Z,52.76
2018-08-07T09:07:52.544Z,52.38
2018-08-07T09:10:23.914Z,53.02
2018-08-07T09:12:54.209Z,53.68
2018-08-07T09:15:23.807Z,54.46
2018-08-07T09:17:53.909Z,54.06
2018-08-07T09:20:26.081Z,55.22
2018-08-07T09:22:56.543Z,56.04
2018-08-07T09:25:27.081Z,56.69
2018-08-07T09:27:56.524Z,56.42
2018-08-07T09:30:27.122Z,56.70
2018-08-07T09:32:57.366Z,57.45
2018-08-07T09:35:26.686Z,57.20
2018-08-07T09:37:56.597Z,60.04
2018-08-07T09:40:25.988Z,61.17
2018-08-07T09:42:56.308Z,61.86
2018-08-07T09:45:30.077Z,61.38
2018-08-07T09:47:59.765Z,61.54
2018-08-07T09:50:29.226Z,60.89
2018-08-07T09:52:58.836Z,61.01
2018-08-07T09:55:28.412Z,61.72
2018-08-07T09:57:57.764Z,61.90
2018-08-07T10:00:32.428Z,61.75
2018-08-07T10:03:05.202Z,61.35
2018-08-07T10:05:35.283Z,59.43
2018-08-07T10:08:04.692Z,56.68
2018-08-07T10:10:34.102Z,54.27
2018-08-07T10:13:03.446Z,52.98
2018-08-07T10:15:33.047Z,52.56
2018-08-07T10:18:02.646Z,52.82
2018-08-07T10:20:32.231Z,52.43
2018-08-07T10:23:01.830Z,54.01
2018-08-07T10:25:31.368Z,50.99
2018-08-07T10:28:00.846Z,52.22
2018-08-07T10:30:30.445Z,51.25
2018-08-07T10:33:00.265Z,49.93
2018-08-07T10:35:29.736Z,50.81
2018-08-07T10:37:59.141Z,52.06
2018-08-07T10:40:28.827Z,49.06
2018-08-07T10:42:58.281Z,49.18
2018-08-07T10:45:27.563Z,49.17
2018-08-07T10:47:56.976Z,48.09
2018-08-07T10:50:27.667Z,48.02
2018-08-07T10:52:57.891Z,45.57
2018-08-07T10:55:27.756Z,47.34
2018-08-07T10:57:58.691Z,48.87
2018-08-07T11:00:31.124Z,48.63
2018-08-07T11:03:00.691Z,44.11
2018-08-07T11:05:30.438Z,45.54
2018-08-07T11:08:00.038Z,48.96
2018-08-07T11:10:29.664Z,48.75
2018-08-07T11:12:59.105Z,45.33
2018-08-07T11:15:32.601Z,46.59
2018-08-07T11:18:02.901Z,46.87
2018-08-07T11:20:32.293Z,44.93
2018-08-07T11:23:02.828Z,45.78
2018-08-07T11:25:33.071Z,44.83
2018-08-07T11:28:02.514Z,44.70
2018-08-07T11:30:32.408Z,45.44
2018-08-07T11:33:02.969Z,46.37
2018-08-07T11:35:32.517Z,46.94
2018-08-07T11:38:03.104Z,45.77
2018-08-07T11:40:32.571Z,43.58
2018-08-07T11:43:03.328Z,44.78
2018-08-07T11:45:32.741Z,43.70
2018-08-07T11:48:03.210Z,42.37
2018-08-07T11:50:33.423Z,42.69
2018-08-07T11:53:03.246Z,43.11
2018-08-07T11:55:34.215Z,43.45
2018-08-07T11:58:04.397Z,44.28
2018-08-07T12:00:37.411Z,46.77
2018-08-07T12:03:08.549Z,44.06
2018-08-07T12:05:37.976Z,46.85
2018-08-07T12:08:09.436Z,47.21
2018-08-07T12:10:38.898Z,46.86
2018-08-07T12:13:08.328Z,48.02
2018-08-07T12:15:37.794Z,48.69
2018-08-07T12:18:07.548Z,48.25
2018-08-07T12:20:37.451Z,49.20
2018-08-07T12:23:07.378Z,49.98
2018-08-07T12:25:37.194Z,48.95
2018-08-07T12:28:37.797Z,49.15
2018-08-07T12:31:07.215Z,50.90
2018-08-07T12:33:37.181Z,49.05
2018-08-07T12:36:07.051Z,49.89
2018-08-07T12:38:37.531Z,49.65
2018-08-07T12:41:07.014Z,48.85
2018-08-07T12:43:37.155Z,49.23
2018-08-07T12:46:08.018Z,48.08
2018-08-07T12:48:37.530Z,48.91
2018-08-07T12:51:07.068Z,49.57
2018-08-07T12:53:36.542Z,49.32
2018-08-07T12:56:06.016Z,49.63
2018-08-07T12:58:35.704Z,49.74
2018-08-07T13:01:05.067Z,49.16
2018-08-07T13:03:34.399Z,50.17
2018-08-07T13:06:04.097Z,49.25
2018-08-07T13:08:33.482Z,48.03
2018-08-07T13:11:02.784Z,49.56
2018-08-07T13:13:32.447Z,51.20
2018-08-07T13:16:02.565Z,51.96
2018-08-07T13:18:32.179Z,53.70
2018-08-07T13:21:01.835Z,53.91
2018-08-07T13:23:32.528Z,54.59
2018-08-07T13:26:02.378Z,55.25
2018-08-07T13:28:32.084Z,58.65
2018-08-07T13:31:01.967Z,67.66
2018-08-07T13:33:31.451Z,69.61
2018-08-07T13:36:00.920Z,69.95
2018-08-07T13:38:30.409Z,70.34
2018-08-07T13:40:59.653Z,70.68
2018-08-07T13:43:29.331Z,69.90
2018-08-07T13:45:58.728Z,71.05
2018-08-07T13:48:28.586Z,69.32
2018-08-07T13:50:57.925Z,66.09
2018-08-07T13:53:27.357Z,66.32
2018-08-07T13:55:58.098Z,63.44
2018-08-07T13:58:27.787Z,64.85
2018-08-07T14:00:57.160Z,63.93
2018-08-07T14:03:27.443Z,63.19
2018-08-07T14:05:57.036Z,60.86
2018-08-07T14:08:26.772Z,59.99
2018-08-07T14:10:56.491Z,60.31
2018-08-07T14:13:25.662Z,58.84
2018-08-07T14:15:54.811Z,58.56
2018-08-07T14:18:24.042Z,61.91
2018-08-07T14:20:53.318Z,62.68
2018-08-07T14:23:22.785Z,62.38
2018-08-07T14:25:52.529Z,62.08
2018-08-07T14:28:22.062Z,64.93
2018-08-07T14:30:51.908Z,66.81
2018-08-07T14:33:21.727Z,67.54
2018-08-07T14:35:51.169Z,67.59
2018-08-07T14:38:20.791Z,67.11
2018-08-07T14:40:50.241Z,67.19
2018-08-07T14:43:20.469Z,67.47
2018-08-07T14:45:49.894Z,64.88
2018-08-07T14:48:19.494Z,64.22
2018-08-07T14:50:49.039Z,63.06
2018-08-07T14:53:20.051Z,62.07
2018-08-07T14:55:50.298Z,63.86
2018-08-07T14:58:20.193Z,67.63
2018-08-07T15:00:49.529Z,71.72
2018-08-07T15:03:18.897Z,73.35
2018-08-07T15:05:48.136Z,74.49
2018-08-07T15:08:17.825Z,72.21
2018-08-07T15:10:47.144Z,70.68
2018-08-07T15:13:16.500Z,71.76
2018-08-07T15:15:47.344Z,72.30
2018-08-07T15:18:17.947Z,75.34
2018-08-07T15:20:47.489Z,76.98
2018-08-07T15:23:16.874Z,79.35
2018-08-07T15:25:46.224Z,79.28
2018-08-07T15:28:16.615Z,78.61
2018-08-07T15:30:46.397Z,78.52
2018-08-07T15:33:17.094Z,79.72
2018-08-07T15:35:46.531Z,81.63
2018-08-07T15:38:17.432Z,82.02
2018-08-07T15:40:47.804Z,81.43
2018-08-07T15:43:17.439Z,76.92
2018-08-07T15:45:46.747Z,68.46
2018-08-07T15:48:16.523Z,64.75
2018-08-07T15:50:46.671Z,61.74
2018-08-07T15:53:16.005Z,62.53
2018-08-07T15:55:46.180Z,64.20
2018-08-07T15:58:15.580Z,68.62
2018-08-07T16:00:46.094Z,70.97
2018-08-07T16:03:15.672Z,73.25
2018-08-07T16:05:45.057Z,79.17
2018-08-07T16:08:14.160Z,80.96
2018-08-07T16:10:44.017Z,82.99
2018-08-07T16:13:13.154Z,82.75
2018-08-07T16:15:42.707Z,83.84
2018-08-07T16:18:12.614Z,85.00
2018-08-07T16:20:41.796Z,84.90
2018-08-07T16:23:11.954Z,86.92
2018-08-07T16:25:41.969Z,87.77
2018-08-07T16:28:11.111Z,90.19
2018-08-07T16:30:40.272Z,89.49
2018-08-07T16:33:09.386Z,91.78
2018-08-07T16:35:39.359Z,89.65
2018-08-07T16:38:08.923Z,89.05
2018-08-07T16:40:39.125Z,88.95
2018-08-07T16:43:08.755Z,89.45
2018-08-07T16:45:39.222Z,90.16
2018-08-07T16:48:08.726Z,90.10
2018-08-07T16:50:38.639Z,90.03
2018-08-07T16:53:08.218Z,90.14
2018-08-07T16:55:39.406Z,91.27
2018-08-07T16:58:08.908Z,91.25
2018-08-07T17:00:39.371Z,91.09
2018-08-07T17:03:10.490Z,93.21
2018-08-07T17:05:41.504Z,95.17
2018-08-07T17:08:10.682Z,95.78
2018-08-07T17:10:40.003Z,92.20
2018-08-07T17:13:09.893Z,90.83
2018-08-07T17:15:40.655Z,93.00
2018-08-07T17:18:10.022Z,94.17
2018-08-07T17:20:41.477Z,94.67
2018-08-07T17:23:10.690Z,94.81
2018-08-07T17:25:42.286Z,91.43
2018-08-07T17:28:12.727Z,90.67
2018-08-07T17:30:43.552Z,90.27
2018-08-07T17:33:14.128Z,93.37
2018-08-07T17:35:43.846Z,94.55
2018-08-07T17:38:14.004Z,94.53
2018-08-07T17:40:43.950Z,94.52
2018-08-07T17:43:14.088Z,92.94
2018-08-07T17:45:43.853Z,92.36
2018-08-07T17:48:13.872Z,90.90
2018-08-07T17:50:43.464Z,93.33
2018-08-07T17:53:14.941Z,92.27
2018-08-07T17:55:47.737Z,90.75
2018-08-07T17:58:18.166Z,90.89
2018-08-07T18:00:47.701Z,90.86
2018-08-07T18:03:17.310Z,90.55
2018-08-07T18:05:47.021Z,90.77
2018-08-07T18:08:17.472Z,89.16
2018-08-07T18:10:51.154Z,91.03
2018-08-07T18:13:24.002Z,91.71
2018-08-07T18:15:54.211Z,92.63
2018-08-07T18:18:24.015Z,92.64
2018-08-07T18:20:53.792Z,95.02
2018-08-07T18:23:24.166Z,93.35
2018-08-07T18:25:53.784Z,92.50
2018-08-07T18:28:24.252Z,91.71
2018-08-07T18:30:53.768Z,92.66
2018-08-07T18:33:23.205Z,91.60
2018-08-07T18:35:53.334Z,92.31
2018-08-07T18:38:23.422Z,91.51
2018-08-07T18:40:52.896Z,91.95
2018-08-07T18:43:23.344Z,91.43
2018-08-07T18:45:53.729Z,92.18
2018-08-07T18:48:25.504Z,92.70
2018-08-07T18:50:57.835Z,92.40
2018-08-07T18:53:28.051Z,96.54
2018-08-07T18:55:57.574Z,97.00
2018-08-07T18:58:27.300Z,96.41
2018-08-07T19:00:57.704Z,96.26
2018-08-07T19:03:27.917Z,96.20
2018-08-07T19:06:01.325Z,94.92
2018-08-07T19:08:31.654Z,94.87
2018-08-07T19:11:03.018Z,94.04
2018-08-07T19:13:32.315Z,95.02
2018-08-07T19:16:02.626Z,94.56
2018-08-07T19:18:32.307Z,93.88
2018-08-07T19:21:01.773Z,93.46
2018-08-07T19:23:34.715Z,92.58
2018-08-07T19:26:05.291Z,92.51
2018-08-07T19:28:34.721Z,93.60
2018-08-07T19:31:04.793Z,92.59
2018-08-07T19:33:35.098Z,93.57
2018-08-07T19:36:05.633Z,95.08
2018-08-07T19:38:36.967Z,95.07
2018-08-07T19:41:07.625Z,94.16
2018-08-07T19:43:37.738Z,93.40
2018-08-07T19:46:08.451Z,94.49
2018-08-07T19:48:38.003Z,95.94
2018-08-07T19:51:08.338Z,95.71
2018-08-07T19:53:39.646Z,95.35
2018-08-07T19:56:09.930Z,94.84
2018-08-07T19:58:41.054Z,94.85
2018-08-07T20:01:11.719Z,94.71
2018-08-07T20:03:42.061Z,94.14
2018-08-07T20:06:11.992Z,94.12
2018-08-07T20:08:51.314Z,95.77
2018-08-07T20:11:24.219Z,96.83
2018-08-07T20:13:53.785Z,96.96
2018-08-07T20:16:23.093Z,95.16
2018-08-07T20:18:53.719Z,94.60
2018-08-07T20:21:23.151Z,94.47
2018-08-07T20:23:52.573Z,95.02
2018-08-07T20:26:22.831Z,95.37
2018-08-07T20:28:55.004Z,96.28
2018-08-07T20:31:25.974Z,95.05
2018-08-07T20:33:57.603Z,94.84
2018-08-07T20:36:28.361Z,95.38
2018-08-07T20:38:57.958Z,95.93
2018-08-07T20:41:27.532Z,95.56
2018-08-07T20:43:57.077Z,95.39
2018-08-07T20:46:27.128Z,95.92
2018-08-07T20:48:56.630Z,95.37
2018-08-07T20:51:27.127Z,98.45
2018-08-07T20:53:56.638Z,96.77
2018-08-07T20:56:26.027Z,96.60
2018-08-07T20:58:56.058Z,97.39
2018-08-07T21:01:26.534Z,96.92
2018-08-07T21:03:56.812Z,96.64
2018-08-07T21:06:28.236Z,96.57
2018-08-07T21:08:58.429Z,97.05
2018-08-07T21:11:28.053Z,96.99
2018-08-07T21:13:57.447Z,97.12
2018-08-07T21:16:27.135Z,97.29
2018-08-07T21:18:56.695Z,97.13
2018-08-07T21:21:27.195Z,98.07
2018-08-07T21:23:56.655Z,98.31
2018-08-07T21:26:26.749Z,96.99
2018-08-07T21:28:57.063Z,97.26
2018-08-07T21:31:26.554Z,97.14
2018-08-07T21:33:56.598Z,96.71
2018-08-07T21:36:27.768Z,96.44
2018-08-07T21:38:57.567Z,96.91
2018-08-07T21:41:27.772Z,97.43
2018-08-07T21:43:57.897Z,97.30
2018-08-07T21:46:27.375Z,98.87
2018-08-07T21:48:57.214Z,97.63
2018-08-07T21:51:28.172Z,98.89
2018-08-07T21:53:57.642Z,99.15
2018-08-07T21:56:28.748Z,98.75
2018-08-07T21:58:58.312Z,99.45
2018-08-07T22:01:27.983Z,99.72
2018-08-07T22:03:57.861Z,98.76
2018-08-07T22:06:27.286Z,98.13
2018-08-07T22:08:56.763Z,99.15
2018-08-07T22:11:25.988Z,99.21
2018-08-07T22:13:55.623Z,98.95
2018-08-07T22:16:26.110Z,99.43
2018-08-07T22:18:55.531Z,100.00
2018-08-07T22:21:26.106Z,99.78
2018-08-07T22:23:55.604Z,99.60
2018-08-07T22:26:26.064Z,100.00
2018-08-07T22:28:55.864Z,98.79
2018-08-07T22:31:25.302Z,98.62
2018-08-07T22:33:54.918Z,100.00
2018-08-07T22:36:24.389Z,100.00
2018-08-07T22:38:53.756Z,99.64
2018-08-07T22:41:24.613Z,99.35
2018-08-07T22:43:53.841Z,100.00
2018-08-07T22:46:24.014Z,99.92
2018-08-07T22:48:53.527Z,99.64
2018-08-07T22:51:23.152Z,99.56
2018-08-07T22:53:53.179Z,99.56
2018-08-07T22:56:23.344Z,99.39
2018-08-07T22:58:52.756Z,99.14
2018-08-07T23:01:23.515Z,99.57
2018-08-07T23:03:53.002Z,98.88
2018-08-07T23:06:22.888Z,99.19
2018-08-07T23:08:52.273Z,98.98
2018-08-07T23:22:54.600Z,100.00
2018-08-07T23:25:23.822Z,100.00
2018-08-07T23:27:54.348Z,100.00
2018-08-07T23:30:23.764Z,100.00
2018-08-07T23:32:53.014Z,99.80
2018-08-07T23:35:23.735Z,99.60
2018-08-07T23:37:53.326Z,100.00
2018-08-07T23:40:24.932Z,100.00
2018-08-07T23:42:54.404Z,99.55
2018-08-07T23:45:24.723Z,99.62
2018-08-07T23:47:55.101Z,100.00
2018-08-07T23:50:25.652Z,100.00
2018-08-07T23:52:56.119Z,100.00
2018-08-07T23:55:27.173Z,100.00
2018-08-07T23:57:56.548Z,100.00
